Etusivu
METAR-TAF:

METAR-TAF

Lentoasemat :

Alattio, Norja

Alattion lentoasema

Leveyspiiri: 69-59N, Pituuspiiri: 023-22E, korkeus merenpinnasta: 0 m

Tämänhetkinen sää

Tämä raportti tehtiin 33 minuuttia sitten, kello 13.50 UTC
Tuuli 11 kn etelästä/kaakosta
Lämpötila -14°C
Kosteus 66%
Ilmanpaine 1015 hPa
Näkyvyys 10 km tai enemmän
Muutamia pilviä 2400 ft:n korkeudessa

METAR: ENAT 221350Z 15011KT 9999 FEW024 M14/M19 Q1015 RMK WIND 700FT 16021KT

Aika: 15:23 (14:23 UTC)

Sääennuste

Tämä raportti tehtiin 3 tuntia ja 23 minuuttia sitten, kello 11.00 UTC
Ennuste voimassa 22. päivästä klo 12 UTC - 22. päivään klo 21 UTC
Tuuli 10 kn etelästä/kaakosta
Näkyvyys 10 km tai enemmän
Muutamia pilviä 3000 ft:n korkeudessa
Hajanaisia pilviä 6000 ft:n korkeudessa

TAF: ENAT 221100Z 2212/2221 15010KT 9999 FEW030 SCT060

Säähavainnot ja -ennusteet yli 4000 lentoasemalta (METAR- ja TAF-raportit).

Käytössä olevat sääasemat on merkitty karttaan keltaisilla ja punaisilla pisteillä.

Aseta hiiri pisteen päälle nähdäksesi sääaseman nimen.

Klikkaa sitten nähdäksesi säähavainnot ja -ennusteet.

Kartan vaihtaminen: klikkaa mustalla rastilla varustettuja vihreitä pisteitä, niin voit zoomata sisään; viivalla varustettua vihreää pistettä, niin voit zoomata ulos tai vihreitä nuolia, niin pääset viereisille kartoille.


METAR-TAF: